KMDJ/MDJ METAR and TAF weather

Enter ICAO airport designator
Station Type Date Time Source
KMDJ METAR 2019/08/24 22:55 UTC NOAA

KMDJ 242255Z AUTO 00000KT M1/4SM HZ 28/25 A2996 RMK A01


Station Type Date Time Source
KMDJ Decoded METAR 2019/08/24 22:55 UTC NOAA

Station name not available
Aug 24, 2019 - 06:55 PM EDT / 2019.08.24 2255 UTC
Wind: Calm:0
Visibility: less than 1/4 mile(s):1
Weather: haze
Temperature: 82 F (28 C)
Dew Point: 77 F (25 C)
Relative Humidity: 83%
Pressure (altimeter): 29.96 in. Hg (1014 hPa)
ob: KMDJ 242255Z AUTO 00000KT M1/4SM HZ 28/25 A2996 RMK A01
cycle: 23

Station Type Date Time Source
KMDJ TAF UTC NOAA

Error!

Example: see airport list